createdAt,value
2017-08-26T00:01:05.518Z,67.28
2017-08-26T00:03:34.571Z,67.86
2017-08-26T00:06:04.534Z,68.22
2017-08-26T00:08:33.587Z,68.09
2017-08-26T00:11:02.679Z,68.13
2017-08-26T00:13:31.724Z,69.33
2017-08-26T00:16:01.071Z,69.13
2017-08-26T00:18:30.138Z,68.90
2017-08-26T00:20:59.196Z,69.02
2017-08-26T00:23:28.268Z,69.20
2017-08-26T00:25:57.320Z,69.35
2017-08-26T00:28:26.442Z,69.41
2017-08-26T00:30:55.481Z,69.34
2017-08-26T00:33:24.507Z,69.20
2017-08-26T00:35:53.628Z,69.36
2017-08-26T00:38:22.687Z,69.34
2017-08-26T00:40:51.755Z,68.90
2017-08-26T00:43:20.826Z,68.92
2017-08-26T00:45:49.891Z,68.73
2017-08-26T00:48:18.951Z,68.91
2017-08-26T00:50:48.036Z,69.24
2017-08-26T00:53:17.106Z,69.46
2017-08-26T00:55:46.176Z,69.32
2017-08-26T00:58:15.217Z,69.20
2017-08-26T01:00:44.296Z,69.84
2017-08-26T01:03:13.349Z,69.29
2017-08-26T01:05:42.876Z,69.46
2017-08-26T01:08:11.904Z,69.53
2017-08-26T01:10:40.976Z,69.79
2017-08-26T01:13:10.010Z,69.63
2017-08-26T01:15:39.063Z,69.71
2017-08-26T01:18:08.156Z,70.01
2017-08-26T01:20:37.185Z,70.70
2017-08-26T01:23:06.247Z,70.84
2017-08-26T01:25:35.308Z,70.69
2017-08-26T01:28:04.423Z,70.58
2017-08-26T01:30:33.534Z,71.08
2017-08-26T01:33:02.559Z,71.08
2017-08-26T01:35:31.641Z,71.32
2017-08-26T01:38:00.724Z,71.25
2017-08-26T01:40:29.761Z,71.33
2017-08-26T01:42:58.839Z,72.33
2017-08-26T01:45:27.876Z,73.23
2017-08-26T01:47:57.053Z,73.19
2017-08-26T01:50:26.157Z,72.90
2017-08-26T01:52:55.205Z,73.03
2017-08-26T01:55:24.284Z,72.90
2017-08-26T01:57:53.356Z,72.90
2017-08-26T02:00:22.625Z,73.02
2017-08-26T02:02:51.744Z,73.29
2017-08-26T02:05:20.864Z,73.30
2017-08-26T02:07:49.923Z,73.61
2017-08-26T02:10:19.043Z,73.44
2017-08-26T02:12:48.107Z,73.14
2017-08-26T02:15:17.142Z,73.65
2017-08-26T02:17:46.973Z,73.50
2017-08-26T02:20:16.045Z,73.42
2017-08-26T02:22:45.286Z,73.48
2017-08-26T02:25:14.368Z,73.96
2017-08-26T02:27:43.455Z,73.94
2017-08-26T02:30:12.543Z,74.00
2017-08-26T02:32:41.585Z,74.18
2017-08-26T02:35:10.664Z,74.49
2017-08-26T02:37:39.720Z,74.38
2017-08-26T02:40:09.370Z,74.25
2017-08-26T02:42:38.434Z,74.64
2017-08-26T02:45:07.597Z,74.94
2017-08-26T02:47:36.684Z,74.68
2017-08-26T02:50:05.747Z,74.36
2017-08-26T02:52:34.805Z,74.32
2017-08-26T02:55:03.880Z,74.59
2017-08-26T02:57:32.954Z,74.49
2017-08-26T03:00:02.014Z,74.58
2017-08-26T03:02:31.243Z,74.76
2017-08-26T03:05:00.285Z,74.96
2017-08-26T03:07:29.315Z,75.47
2017-08-26T03:09:58.691Z,75.59
2017-08-26T03:12:27.752Z,75.83
2017-08-26T03:14:56.825Z,75.77
2017-08-26T03:17:25.870Z,76.04
2017-08-26T03:19:54.964Z,76.38
2017-08-26T03:22:24.000Z,76.29
2017-08-26T03:24:53.042Z,76.15
2017-08-26T03:27:22.127Z,76.12
2017-08-26T03:29:51.184Z,75.90
2017-08-26T03:32:20.243Z,76.11
2017-08-26T03:34:49.327Z,76.57
2017-08-26T03:37:18.390Z,76.30
2017-08-26T03:39:47.505Z,76.42
2017-08-26T03:42:16.575Z,76.35
2017-08-26T03:44:45.631Z,76.48
2017-08-26T03:47:14.659Z,76.12
2017-08-26T03:49:43.732Z,75.64
2017-08-26T03:52:12.804Z,75.98
2017-08-26T03:54:41.851Z,76.05
2017-08-26T03:57:10.921Z,75.75
2017-08-26T03:59:39.969Z,75.39
2017-08-26T04:02:09.044Z,75.67
2017-08-26T04:04:38.244Z,75.63
2017-08-26T04:07:07.450Z,75.45
2017-08-26T04:09:36.480Z,75.79
2017-08-26T04:12:05.730Z,75.92
2017-08-26T04:14:34.764Z,76.97
2017-08-26T04:17:03.871Z,77.37
2017-08-26T04:19:32.907Z,77.39
2017-08-26T04:22:01.963Z,77.31
2017-08-26T04:24:31.031Z,77.46
2017-08-26T04:27:00.087Z,77.20
2017-08-26T04:29:29.141Z,77.73
2017-08-26T04:31:58.232Z,77.18
2017-08-26T04:34:27.297Z,77.66
2017-08-26T04:36:56.408Z,77.83
2017-08-26T04:39:25.487Z,78.09
2017-08-26T04:41:54.544Z,78.25
2017-08-26T04:44:23.601Z,78.01
2017-08-26T04:46:52.671Z,77.80
2017-08-26T04:49:21.740Z,77.92
2017-08-26T04:51:50.824Z,77.96
2017-08-26T04:54:19.888Z,77.76
2017-08-26T04:56:48.933Z,77.89
2017-08-26T04:59:18.036Z,77.86
2017-08-26T05:01:47.081Z,78.02
2017-08-26T05:04:16.135Z,78.18
2017-08-26T05:06:45.214Z,77.70
2017-08-26T05:09:14.287Z,76.95
2017-08-26T05:11:43.364Z,76.64
2017-08-26T05:14:12.789Z,76.41
2017-08-26T05:16:41.864Z,76.63
2017-08-26T05:19:11.149Z,76.77
2017-08-26T05:21:40.246Z,76.98
2017-08-26T05:24:09.331Z,77.20
2017-08-26T05:26:38.373Z,77.54
2017-08-26T05:29:07.424Z,77.71
2017-08-26T05:31:36.484Z,77.82
2017-08-26T05:34:05.739Z,77.78
2017-08-26T05:36:34.856Z,77.69
2017-08-26T05:39:03.978Z,77.96
2017-08-26T05:41:33.049Z,78.07
2017-08-26T05:44:02.503Z,78.11
2017-08-26T05:46:31.529Z,78.59
2017-08-26T05:49:00.591Z,78.66
2017-08-26T05:51:29.652Z,78.59
2017-08-26T05:53:58.697Z,78.31
2017-08-26T05:56:27.763Z,78.06
2017-08-26T05:58:56.832Z,77.61
2017-08-26T06:01:25.936Z,77.69
2017-08-26T06:03:54.994Z,77.62
2017-08-26T06:06:24.062Z,77.59
2017-08-26T06:08:53.463Z,77.64
2017-08-26T06:11:22.512Z,77.60
2017-08-26T06:13:51.651Z,77.33
2017-08-26T06:16:20.699Z,77.36
2017-08-26T06:18:49.793Z,77.44
2017-08-26T06:21:18.852Z,76.90
2017-08-26T06:23:47.907Z,76.75
2017-08-26T06:26:17.003Z,76.67
2017-08-26T06:28:46.056Z,76.81
2017-08-26T06:31:15.115Z,76.79
2017-08-26T06:33:44.211Z,76.95
2017-08-26T06:36:13.302Z,77.08
2017-08-26T06:38:42.355Z,76.75
2017-08-26T06:41:11.419Z,76.55
2017-08-26T06:43:40.492Z,76.28
2017-08-26T06:46:09.588Z,75.85
2017-08-26T06:48:38.949Z,75.69
2017-08-26T06:51:08.031Z,75.72
2017-08-26T06:53:37.107Z,75.68
2017-08-26T06:56:06.196Z,75.04
2017-08-26T06:58:35.272Z,74.76
2017-08-26T07:01:04.363Z,74.73
2017-08-26T07:03:33.410Z,74.44
2017-08-26T07:06:02.464Z,74.98
2017-08-26T07:08:31.550Z,74.33
2017-08-26T07:11:00.590Z,73.93
2017-08-26T07:13:29.638Z,73.42
2017-08-26T07:15:58.695Z,73.29
2017-08-26T07:18:27.836Z,72.71
2017-08-26T07:20:57.096Z,72.86
2017-08-26T07:23:26.140Z,73.12
2017-08-26T07:25:55.196Z,73.10
2017-08-26T07:28:24.251Z,72.69
2017-08-26T07:30:53.319Z,72.21
2017-08-26T07:33:22.361Z,71.77
2017-08-26T07:35:51.448Z,71.06
2017-08-26T07:38:20.538Z,70.45
2017-08-26T07:40:49.646Z,70.52
2017-08-26T07:43:18.697Z,70.03
2017-08-26T07:45:47.768Z,69.33
2017-08-26T07:48:16.815Z,69.26
2017-08-26T07:50:45.876Z,69.76
2017-08-26T07:53:14.943Z,69.00
2017-08-26T07:55:44.001Z,69.34
2017-08-26T07:58:13.049Z,69.52
2017-08-26T08:00:42.108Z,68.66
2017-08-26T08:03:11.168Z,68.30
2017-08-26T08:05:40.241Z,68.91
2017-08-26T08:08:09.320Z,68.86
2017-08-26T08:10:38.369Z,68.64
2017-08-26T08:13:07.449Z,67.79
2017-08-26T08:15:36.476Z,67.60
2017-08-26T08:18:05.552Z,67.62
2017-08-26T08:20:34.594Z,67.95
2017-08-26T08:23:03.707Z,67.65
2017-08-26T08:25:33.772Z,67.77
2017-08-26T08:28:02.872Z,67.42
2017-08-26T08:30:32.004Z,66.65
2017-08-26T08:33:01.032Z,66.74
2017-08-26T08:35:30.094Z,66.54
2017-08-26T08:37:59.152Z,66.14
2017-08-26T08:40:28.193Z,66.11
2017-08-26T08:42:57.253Z,66.50
2017-08-26T08:45:26.301Z,66.57
2017-08-26T08:47:56.135Z,66.80
2017-08-26T08:50:25.205Z,66.36
2017-08-26T08:52:54.240Z,66.80
2017-08-26T08:55:23.400Z,66.88
2017-08-26T08:57:52.461Z,67.57
2017-08-26T09:00:21.556Z,67.41
2017-08-26T09:02:50.734Z,66.46
2017-08-26T09:05:19.793Z,67.02
2017-08-26T09:07:48.847Z,65.66
2017-08-26T09:10:17.919Z,65.15
2017-08-26T09:12:47.151Z,65.40
2017-08-26T09:15:16.220Z,66.49
2017-08-26T09:17:45.312Z,65.31
2017-08-26T09:20:14.384Z,65.80
2017-08-26T09:22:43.448Z,65.69
2017-08-26T09:25:12.508Z,65.47
2017-08-26T09:27:41.576Z,65.79
2017-08-26T09:30:10.644Z,66.06
2017-08-26T09:32:39.709Z,66.46
2017-08-26T09:35:08.780Z,65.77
2017-08-26T09:37:37.846Z,65.92
2017-08-26T09:40:06.917Z,66.25
2017-08-26T09:42:36.024Z,66.67
2017-08-26T09:45:05.083Z,66.18
2017-08-26T09:47:34.147Z,67.17
2017-08-26T09:50:03.219Z,66.52
2017-08-26T09:52:32.641Z,66.46
2017-08-26T09:55:01.865Z,64.79
2017-08-26T09:57:30.908Z,63.65
2017-08-26T09:59:59.956Z,63.14
2017-08-26T10:02:29.040Z,63.40
2017-08-26T10:04:59.013Z,63.97
2017-08-26T10:07:28.076Z,64.39
2017-08-26T10:09:57.120Z,64.02
2017-08-26T10:12:26.181Z,64.10
2017-08-26T10:14:55.253Z,64.01
2017-08-26T10:17:24.292Z,63.39
2017-08-26T10:19:53.439Z,63.71
2017-08-26T10:22:24.483Z,64.67
2017-08-26T10:24:55.159Z,64.55
2017-08-26T10:27:24.234Z,65.40
2017-08-26T10:29:53.362Z,65.36
2017-08-26T10:32:22.441Z,65.52
2017-08-26T10:34:51.502Z,65.34
2017-08-26T10:37:20.565Z,65.44
2017-08-26T10:39:49.620Z,65.72
2017-08-26T10:42:18.669Z,66.34
2017-08-26T10:44:47.746Z,66.26
2017-08-26T10:47:16.803Z,66.41
2017-08-26T10:49:45.870Z,66.37
2017-08-26T10:52:14.933Z,66.62
2017-08-26T10:54:44.005Z,67.26
2017-08-26T10:57:13.125Z,67.81
2017-08-26T10:59:42.233Z,67.83
2017-08-26T11:02:11.272Z,68.47
2017-08-26T11:04:40.337Z,68.27
2017-08-26T11:07:09.404Z,68.24
2017-08-26T11:09:38.495Z,68.38
2017-08-26T11:12:07.560Z,68.45
2017-08-26T11:14:36.613Z,68.17
2017-08-26T11:17:06.040Z,68.28
2017-08-26T11:19:35.871Z,68.72
2017-08-26T11:22:04.934Z,69.19
2017-08-26T11:24:34.006Z,68.75
2017-08-26T11:27:03.181Z,68.30
2017-08-26T11:29:32.555Z,67.87
2017-08-26T11:32:01.634Z,67.64
2017-08-26T11:34:30.683Z,67.05
2017-08-26T11:36:59.785Z,67.10
2017-08-26T11:39:28.836Z,66.74
2017-08-26T11:41:57.913Z,67.57
2017-08-26T11:44:27.012Z,68.29
2017-08-26T11:46:56.077Z,67.96
2017-08-26T11:49:25.189Z,67.55
2017-08-26T11:51:54.235Z,66.39
2017-08-26T11:54:23.481Z,66.21
2017-08-26T11:56:52.555Z,65.22
2017-08-26T11:59:21.650Z,65.83
2017-08-26T12:01:50.751Z,66.08
2017-08-26T12:04:19.818Z,66.05
2017-08-26T12:06:48.913Z,65.25
2017-08-26T12:09:17.992Z,64.61
2017-08-26T12:11:47.104Z,64.78
2017-08-26T12:14:16.173Z,65.08
2017-08-26T12:16:45.213Z,64.56
2017-08-26T12:19:14.281Z,65.02
2017-08-26T12:21:43.383Z,64.61
2017-08-26T12:24:12.465Z,64.67
2017-08-26T12:26:41.519Z,65.94
2017-08-26T12:29:10.587Z,65.00
2017-08-26T12:31:39.710Z,65.02
2017-08-26T12:34:08.790Z,65.72
2017-08-26T12:36:37.839Z,65.24
2017-08-26T12:39:06.913Z,65.42
2017-08-26T12:41:35.990Z,65.38
2017-08-26T12:44:05.033Z,65.97
2017-08-26T12:46:34.100Z,66.30
2017-08-26T12:49:03.454Z,66.51
2017-08-26T12:51:32.508Z,66.90
2017-08-26T12:54:01.588Z,66.45
2017-08-26T12:56:30.668Z,67.03
2017-08-26T12:58:59.747Z,67.38
2017-08-26T13:01:28.819Z,67.34
2017-08-26T13:03:57.898Z,67.44
2017-08-26T13:06:26.975Z,67.03
2017-08-26T13:08:56.018Z,66.44
2017-08-26T13:11:25.080Z,67.18
2017-08-26T13:13:54.142Z,67.65
2017-08-26T13:16:23.219Z,66.53
2017-08-26T13:18:52.282Z,66.79
2017-08-26T13:21:21.354Z,66.68
2017-08-26T13:23:50.455Z,66.37
2017-08-26T13:26:19.546Z,66.12
2017-08-26T13:28:49.405Z,65.89
2017-08-26T13:31:18.493Z,64.83
2017-08-26T13:33:47.544Z,65.41
2017-08-26T13:36:16.604Z,65.36
2017-08-26T13:38:45.672Z,65.48
2017-08-26T13:41:14.743Z,64.06
2017-08-26T13:43:43.795Z,64.27
2017-08-26T13:46:12.898Z,64.60
2017-08-26T13:48:41.956Z,64.54
2017-08-26T13:51:11.046Z,64.72
2017-08-26T13:53:40.088Z,63.70
2017-08-26T13:56:09.373Z,64.07
2017-08-26T13:58:38.413Z,64.21
2017-08-26T14:01:07.489Z,62.98
2017-08-26T14:03:36.564Z,61.30
2017-08-26T14:06:05.640Z,62.45
2017-08-26T14:08:34.729Z,60.80
2017-08-26T14:11:03.783Z,61.48
2017-08-26T14:13:33.122Z,61.60
2017-08-26T14:16:02.204Z,61.61
2017-08-26T14:18:31.268Z,62.43
2017-08-26T14:21:00.336Z,61.52
2017-08-26T14:23:30.189Z,60.23
2017-08-26T14:25:59.249Z,61.04
2017-08-26T14:28:29.181Z,59.73
2017-08-26T14:30:58.254Z,59.67
2017-08-26T14:33:28.125Z,60.59
2017-08-26T14:35:57.571Z,61.05
2017-08-26T14:38:26.763Z,61.82
2017-08-26T14:40:56.585Z,60.58
2017-08-26T14:43:25.671Z,60.21
2017-08-26T14:45:54.739Z,58.22
2017-08-26T14:48:23.831Z,59.96
2017-08-26T14:50:52.928Z,58.14
2017-08-26T14:53:22.039Z,58.54
2017-08-26T14:55:51.320Z,58.28
2017-08-26T14:58:20.408Z,59.08
2017-08-26T15:00:49.478Z,59.74
2017-08-26T15:03:18.558Z,58.93
2017-08-26T15:05:48.393Z,58.70
2017-08-26T15:08:17.480Z,58.53
2017-08-26T15:10:46.612Z,58.35
2017-08-26T15:13:15.686Z,57.98
2017-08-26T15:15:44.924Z,59.30
2017-08-26T15:18:14.255Z,58.95
2017-08-26T15:20:43.343Z,58.43
2017-08-26T15:23:13.164Z,57.34
2017-08-26T15:25:42.240Z,56.61
2017-08-26T15:28:11.394Z,55.09
2017-08-26T15:30:40.468Z,56.02
2017-08-26T15:33:09.548Z,57.13
2017-08-26T15:35:38.613Z,56.72
2017-08-26T15:38:07.717Z,57.64
2017-08-26T15:40:36.751Z,57.43
2017-08-26T15:43:05.832Z,57.31
2017-08-26T15:45:34.889Z,57.70
2017-08-26T15:48:03.965Z,57.15
2017-08-26T15:50:33.028Z,56.40
2017-08-26T15:53:02.110Z,57.18
2017-08-26T15:55:31.200Z,57.06
2017-08-26T15:58:01.045Z,57.10
2017-08-26T16:00:30.105Z,57.62
2017-08-26T16:02:59.972Z,58.25
2017-08-26T16:05:29.038Z,58.47
2017-08-26T16:07:58.148Z,58.17
2017-08-26T16:10:27.179Z,58.70
2017-08-26T16:12:56.245Z,57.72
2017-08-26T16:15:25.311Z,58.17
2017-08-26T16:17:54.380Z,59.32
2017-08-26T16:20:24.211Z,59.11
2017-08-26T16:22:53.255Z,58.86
2017-08-26T16:25:22.425Z,59.56
2017-08-26T16:27:51.504Z,59.03
2017-08-26T16:30:20.605Z,58.71
2017-08-26T16:32:49.675Z,58.90
2017-08-26T16:35:18.802Z,59.32
2017-08-26T16:37:47.863Z,59.54
2017-08-26T16:40:16.961Z,59.61
2017-08-26T16:42:46.051Z,60.67
2017-08-26T16:45:15.565Z,60.31
2017-08-26T16:47:44.858Z,60.81
2017-08-26T16:50:13.925Z,61.06
2017-08-26T16:52:43.023Z,60.86
2017-08-26T16:55:12.163Z,60.73
2017-08-26T16:57:41.319Z,60.28
2017-08-26T17:00:10.461Z,60.19
2017-08-26T17:02:39.632Z,59.85
2017-08-26T17:05:08.760Z,59.55
2017-08-26T17:07:37.853Z,59.52
2017-08-26T17:10:06.938Z,58.55
2017-08-26T17:12:36.015Z,59.13
2017-08-26T17:15:05.161Z,58.76
2017-08-26T17:17:34.226Z,58.29
2017-08-26T17:20:03.300Z,58.48
2017-08-26T17:22:33.140Z,58.19
2017-08-26T17:25:02.205Z,58.09
2017-08-26T17:27:31.317Z,56.93
2017-08-26T17:30:01.226Z,56.67
2017-08-26T17:32:30.289Z,55.88
2017-08-26T17:34:59.386Z,55.50
2017-08-26T17:37:28.431Z,55.09
2017-08-26T17:39:57.552Z,55.46
2017-08-26T17:42:26.635Z,55.30
2017-08-26T17:44:55.720Z,56.04
2017-08-26T17:47:24.776Z,55.64
2017-08-26T17:49:53.877Z,55.80
2017-08-26T17:52:22.966Z,55.76
2017-08-26T17:54:52.052Z,55.83
2017-08-26T17:57:21.112Z,56.21
2017-08-26T17:59:50.183Z,55.68
2017-08-26T18:02:19.258Z,56.30
2017-08-26T18:04:48.322Z,55.52
2017-08-26T18:07:18.147Z,55.79
2017-08-26T18:09:47.259Z,56.09
2017-08-26T18:12:16.455Z,56.42
2017-08-26T18:14:46.370Z,57.37
2017-08-26T18:17:15.385Z,57.54
2017-08-26T18:19:44.464Z,57.75
2017-08-26T18:22:14.282Z,57.48
2017-08-26T18:24:43.364Z,57.76
2017-08-26T18:27:13.188Z,58.11
2017-08-26T18:29:42.242Z,58.46
2017-08-26T18:32:11.331Z,58.85
2017-08-26T18:34:40.375Z,59.13
2017-08-26T18:37:10.356Z,59.45
2017-08-26T18:39:39.413Z,59.87
2017-08-26T18:42:08.591Z,60.73
2017-08-26T18:44:37.631Z,61.09
2017-08-26T18:47:06.735Z,61.14
2017-08-26T18:49:35.809Z,61.36
2017-08-26T18:52:04.890Z,61.69
2017-08-26T18:54:34.011Z,62.05
2017-08-26T18:57:03.064Z,62.84
2017-08-26T18:59:32.192Z,63.05
2017-08-26T19:02:01.281Z,63.55
2017-08-26T19:04:30.367Z,63.93
2017-08-26T19:06:59.449Z,64.28
2017-08-26T19:09:28.538Z,64.03
2017-08-26T19:11:58.414Z,64.10
2017-08-26T19:14:27.664Z,64.43
2017-08-26T19:16:56.846Z,64.95
2017-08-26T19:19:25.921Z,65.42
2017-08-26T19:21:54.999Z,65.56
2017-08-26T19:24:24.077Z,65.74
2017-08-26T19:26:53.126Z,65.89
2017-08-26T19:29:22.985Z,66.16
2017-08-26T19:31:52.044Z,66.33
2017-08-26T19:34:21.299Z,66.36
2017-08-26T19:36:50.431Z,66.15
2017-08-26T19:39:19.531Z,66.44
2017-08-26T19:41:49.361Z,66.57
2017-08-26T19:44:18.628Z,66.89
2017-08-26T19:46:48.612Z,67.10
2017-08-26T19:49:17.707Z,67.13
2017-08-26T19:51:46.800Z,67.29
2017-08-26T19:54:15.899Z,67.24
2017-08-26T19:56:45.000Z,67.13
2017-08-26T19:59:14.111Z,67.12
2017-08-26T20:01:43.946Z,67.28
2017-08-26T20:04:13.275Z,67.57
2017-08-26T20:06:42.430Z,67.63
2017-08-26T20:09:11.545Z,67.80
2017-08-26T20:11:40.628Z,67.99
2017-08-26T20:14:09.682Z,68.07
2017-08-26T20:16:39.682Z,68.16
2017-08-26T20:19:08.846Z,68.40
2017-08-26T20:21:37.916Z,68.78
2017-08-26T20:24:07.057Z,68.69
2017-08-26T20:26:36.109Z,68.78
2017-08-26T20:29:05.193Z,68.86
2017-08-26T20:31:35.323Z,69.31
2017-08-26T20:34:04.396Z,69.76
2017-08-26T20:36:33.480Z,70.04
2017-08-26T20:39:02.544Z,69.84
2017-08-26T20:41:31.776Z,70.13
2017-08-26T20:44:01.012Z,70.32
2017-08-26T20:46:30.872Z,70.49
2017-08-26T20:48:59.939Z,70.55
2017-08-26T20:51:29.116Z,70.55
2017-08-26T20:53:58.213Z,70.52
2017-08-26T20:56:28.052Z,70.53
2017-08-26T20:58:57.138Z,70.54
2017-08-26T21:01:26.217Z,70.78
2017-08-26T21:03:55.303Z,71.01
2017-08-26T21:06:24.412Z,71.20
2017-08-26T21:08:53.449Z,71.70
2017-08-26T21:11:22.531Z,71.77
2017-08-26T21:13:51.627Z,71.90
2017-08-26T21:16:20.710Z,71.77
2017-08-26T21:18:49.796Z,71.98
2017-08-26T21:21:18.860Z,72.88
2017-08-26T21:23:47.974Z,73.12
2017-08-26T21:26:17.268Z,73.00
2017-08-26T21:28:46.372Z,72.70
2017-08-26T21:31:15.444Z,73.39
2017-08-26T21:33:44.494Z,73.39
2017-08-26T21:36:13.588Z,72.91
2017-08-26T21:38:42.655Z,72.81
2017-08-26T21:41:11.742Z,72.82
2017-08-26T21:43:40.791Z,73.41
2017-08-26T21:46:09.863Z,74.00
2017-08-26T21:48:38.942Z,73.95
2017-08-26T21:51:08.760Z,74.56
2017-08-26T21:53:37.863Z,74.42
2017-08-26T21:56:07.840Z,74.28
2017-08-26T21:58:36.900Z,74.09
2017-08-26T22:01:06.118Z,74.43
2017-08-26T22:03:35.194Z,74.81
2017-08-26T22:06:04.255Z,74.60
2017-08-26T22:08:34.094Z,74.60
2017-08-26T22:11:03.151Z,74.64
2017-08-26T22:13:33.227Z,74.73
2017-08-26T22:16:02.403Z,74.03
2017-08-26T22:18:31.465Z,73.85
2017-08-26T22:21:00.559Z,74.15
2017-08-26T22:23:29.612Z,74.91
2017-08-26T22:25:58.705Z,74.92
2017-08-26T22:28:27.799Z,75.27
2017-08-26T22:30:57.120Z,75.35
2017-08-26T22:33:26.225Z,75.14
2017-08-26T22:35:56.061Z,75.12
2017-08-26T22:38:25.912Z,75.50
2017-08-26T22:40:55.083Z,75.77
2017-08-26T22:43:24.163Z,75.76
2017-08-26T22:45:53.215Z,75.33
2017-08-26T22:48:22.282Z,74.68
2017-08-26T22:50:51.335Z,74.78
2017-08-26T22:53:20.427Z,75.05
2017-08-26T22:55:49.486Z,75.24
2017-08-26T22:58:18.577Z,75.55
2017-08-26T23:00:47.631Z,75.62
2017-08-26T23:03:16.704Z,75.57
2017-08-26T23:05:45.806Z,75.52
2017-08-26T23:08:14.958Z,75.76
2017-08-26T23:10:44.019Z,75.88
2017-08-26T23:13:13.075Z,76.11
2017-08-26T23:15:42.412Z,76.38
2017-08-26T23:18:11.513Z,76.75
2017-08-26T23:20:40.583Z,76.94
2017-08-26T23:23:09.666Z,77.20
2017-08-26T23:25:38.709Z,77.25
2017-08-26T23:28:08.196Z,77.63
2017-08-26T23:30:37.253Z,77.80
2017-08-26T23:33:06.351Z,77.86
2017-08-26T23:35:35.437Z,77.90
2017-08-26T23:38:04.491Z,78.00
2017-08-26T23:40:33.571Z,78.40
2017-08-26T23:43:02.645Z,78.45
2017-08-26T23:45:31.695Z,78.63
2017-08-26T23:48:00.797Z,78.79
2017-08-26T23:50:29.847Z,78.95
2017-08-26T23:52:58.925Z,78.87
2017-08-26T23:55:27.979Z,78.90
2017-08-26T23:57:57.067Z,79.09
